sensor_id;sensor_type;location;lat;lon;timestamp;pressure;altitude;pressure_sealevel;temperature;humidity
70684;BME280;58263;48.146;11.440;2023-04-05T00:01:22;96092.09;;;-0.79;60.54
70684;BME280;58263;48.146;11.440;2023-04-05T00:03:50;96093.31;;;-0.91;60.88
70684;BME280;58263;48.146;11.440;2023-04-05T00:06:16;96094.66;;;-0.87;60.95
70684;BME280;58263;48.146;11.440;2023-04-05T00:08:42;96085.47;;;-0.83;61.07
70684;BME280;58263;48.146;11.440;2023-04-05T00:11:15;96084.69;;;-0.75;60.96
70684;BME280;58263;48.146;11.440;2023-04-05T00:13:41;96083.50;;;-0.81;60.84
70684;BME280;58263;48.146;11.440;2023-04-05T00:16:07;96088.09;;;-0.83;61.33
70684;BME280;58263;48.146;11.440;2023-04-05T00:18:32;96080.50;;;-0.86;61.31
70684;BME280;58263;48.146;11.440;2023-04-05T00:20:58;96085.63;;;-0.84;61.33
70684;BME280;58263;48.146;11.440;2023-04-05T00:23:23;96072.97;;;-0.81;60.94
70684;BME280;58263;48.146;11.440;2023-04-05T00:25:51;96074.94;;;-0.83;61.40
70684;BME280;58263;48.146;11.440;2023-04-05T00:28:16;96075.59;;;-0.99;61.68
70684;BME280;58263;48.146;11.440;2023-04-05T00:30:41;96076.44;;;-0.98;61.88
70684;BME280;58263;48.146;11.440;2023-04-05T00:33:06;96078.09;;;-0.97;61.69
70684;BME280;58263;48.146;11.440;2023-04-05T00:35:32;96081.47;;;-1.05;61.93
70684;BME280;58263;48.146;11.440;2023-04-05T00:37:57;96074.84;;;-1.09;62.12
70684;BME280;58263;48.146;11.440;2023-04-05T00:40:23;96065.44;;;-1.12;61.91
70684;BME280;58263;48.146;11.440;2023-04-05T00:42:49;96072.38;;;-1.11;62.17
70684;BME280;58263;48.146;11.440;2023-04-05T00:45:14;96061.56;;;-1.08;62.03
70684;BME280;58263;48.146;11.440;2023-04-05T00:47:40;96061.91;;;-1.03;61.89
70684;BME280;58263;48.146;11.440;2023-04-05T00:50:07;96061.59;;;-1.17;62.68
70684;BME280;58263;48.146;11.440;2023-04-05T00:52:34;96063.56;;;-1.20;62.86
70684;BME280;58263;48.146;11.440;2023-04-05T00:55:02;96064.59;;;-1.30;62.88
70684;BME280;58263;48.146;11.440;2023-04-05T00:57:28;96060.94;;;-1.38;63.15
70684;BME280;58263;48.146;11.440;2023-04-05T00:59:59;96064.16;;;-1.26;63.13
70684;BME280;58263;48.146;11.440;2023-04-05T01:02:31;96056.72;;;-1.30;63.19
70684;BME280;58263;48.146;11.440;2023-04-05T01:04:59;96057.28;;;-1.37;63.45
70684;BME280;58263;48.146;11.440;2023-04-05T01:07:39;96056.78;;;-1.22;63.01
70684;BME280;58263;48.146;11.440;2023-04-05T01:10:08;96050.78;;;-1.14;62.93
70684;BME280;58263;48.146;11.440;2023-04-05T01:12:34;96050.25;;;-1.18;63.05
70684;BME280;58263;48.146;11.440;2023-04-05T01:15:01;96044.75;;;-1.25;63.24
70684;BME280;58263;48.146;11.440;2023-04-05T01:17:28;96041.34;;;-1.35;63.34
70684;BME280;58263;48.146;11.440;2023-04-05T01:20:03;96037.53;;;-1.41;63.79
70684;BME280;58263;48.146;11.440;2023-04-05T01:28:30;96033.47;;;-1.35;63.44
70684;BME280;58263;48.146;11.440;2023-04-05T01:33:40;96024.44;;;-1.50;64.07
70684;BME280;58263;48.146;11.440;2023-04-05T01:36:33;96022.19;;;-1.45;64.08
70684;BME280;58263;48.146;11.440;2023-04-05T01:39:03;96023.16;;;-1.46;64.28
70684;BME280;58263;48.146;11.440;2023-04-05T01:41:29;96030.53;;;-1.50;64.65
70684;BME280;58263;48.146;11.440;2023-04-05T01:43:55;96012.22;;;-1.42;64.37
70684;BME280;58263;48.146;11.440;2023-04-05T01:46:20;96016.13;;;-1.46;64.30
70684;BME280;58263;48.146;11.440;2023-04-05T01:48:46;96015.88;;;-1.52;64.41
70684;BME280;58263;48.146;11.440;2023-04-05T01:51:11;96013.09;;;-1.51;64.79
70684;BME280;58263;48.146;11.440;2023-04-05T01:53:36;96015.41;;;-1.48;64.66
70684;BME280;58263;48.146;11.440;2023-04-05T01:56:02;96008.22;;;-1.46;64.60
70684;BME280;58263;48.146;11.440;2023-04-05T01:58:27;96004.25;;;-1.50;64.63
70684;BME280;58263;48.146;11.440;2023-04-05T02:00:54;96005.94;;;-1.59;64.95
70684;BME280;58263;48.146;11.440;2023-04-05T02:03:23;96007.84;;;-1.51;64.83
70684;BME280;58263;48.146;11.440;2023-04-05T02:05:49;96004.00;;;-1.39;64.46
70684;BME280;58263;48.146;11.440;2023-04-05T02:08:14;96004.53;;;-1.35;64.35
70684;BME280;58263;48.146;11.440;2023-04-05T02:10:40;96002.72;;;-1.52;64.50
70684;BME280;58263;48.146;11.440;2023-04-05T02:13:06;96004.75;;;-1.46;64.79
70684;BME280;58263;48.146;11.440;2023-04-05T02:15:31;95994.06;;;-1.45;64.74
70684;BME280;58263;48.146;11.440;2023-04-05T02:17:58;95994.91;;;-1.44;64.67
70684;BME280;58263;48.146;11.440;2023-04-05T02:20:26;95993.63;;;-1.40;64.55
70684;BME280;58263;48.146;11.440;2023-04-05T02:22:51;95991.16;;;-1.42;64.79
70684;BME280;58263;48.146;11.440;2023-04-05T02:25:18;96000.84;;;-1.42;64.54
70684;BME280;58263;48.146;11.440;2023-04-05T02:27:43;95995.44;;;-1.41;64.51
70684;BME280;58263;48.146;11.440;2023-04-05T02:30:09;95988.88;;;-1.37;64.28
70684;BME280;58263;48.146;11.440;2023-04-05T02:32:34;95994.47;;;-1.40;64.55
70684;BME280;58263;48.146;11.440;2023-04-05T02:35:00;95990.38;;;-1.52;64.77
70684;BME280;58263;48.146;11.440;2023-04-05T02:37:25;95986.88;;;-1.61;64.72
70684;BME280;58263;48.146;11.440;2023-04-05T02:39:51;95973.03;;;-1.63;65.32
70684;BME280;58263;48.146;11.440;2023-04-05T02:42:17;95969.94;;;-1.58;64.79
70684;BME280;58263;48.146;11.440;2023-04-05T02:44:42;95982.41;;;-1.60;65.05
70684;BME280;58263;48.146;11.440;2023-04-05T02:47:07;95973.84;;;-1.62;65.21
70684;BME280;58263;48.146;11.440;2023-04-05T02:49:33;95969.94;;;-1.58;65.24
70684;BME280;58263;48.146;11.440;2023-04-05T02:51:58;95967.69;;;-1.53;64.81
70684;BME280;58263;48.146;11.440;2023-04-05T02:54:23;95969.03;;;-1.49;64.91
70684;BME280;58263;48.146;11.440;2023-04-05T02:56:48;95978.28;;;-1.45;64.71
70684;BME280;58263;48.146;11.440;2023-04-05T02:59:14;95977.00;;;-1.41;64.67
70684;BME280;58263;48.146;11.440;2023-04-05T03:01:40;95975.38;;;-1.42;64.78
70684;BME280;58263;48.146;11.440;2023-04-05T03:04:11;95974.31;;;-1.49;64.91
70684;BME280;58263;48.146;11.440;2023-04-05T03:06:37;95969.44;;;-1.44;64.75
70684;BME280;58263;48.146;11.440;2023-04-05T03:09:02;95975.97;;;-1.48;65.06
70684;BME280;58263;48.146;11.440;2023-04-05T03:11:28;95965.91;;;-1.34;64.79
70684;BME280;58263;48.146;11.440;2023-04-05T03:13:53;95966.94;;;-1.27;64.79
70684;BME280;58263;48.146;11.440;2023-04-05T03:16:19;95965.22;;;-1.37;64.82
70684;BME280;58263;48.146;11.440;2023-04-05T03:18:44;95956.88;;;-1.50;65.15
70684;BME280;58263;48.146;11.440;2023-04-05T03:21:10;95956.28;;;-1.44;64.97
70684;BME280;58263;48.146;11.440;2023-04-05T03:23:35;95964.78;;;-1.50;65.47
70684;BME280;58263;48.146;11.440;2023-04-05T03:26:01;95967.41;;;-1.50;65.31
70684;BME280;58263;48.146;11.440;2023-04-05T03:28:28;95961.16;;;-1.49;65.21
70684;BME280;58263;48.146;11.440;2023-04-05T03:30:56;95962.66;;;-1.46;65.19
70684;BME280;58263;48.146;11.440;2023-04-05T03:33:21;95959.78;;;-1.35;65.04
70684;BME280;58263;48.146;11.440;2023-04-05T03:35:47;95956.88;;;-1.50;65.05
70684;BME280;58263;48.146;11.440;2023-04-05T03:38:13;95950.63;;;-1.49;65.36
70684;BME280;58263;48.146;11.440;2023-04-05T03:40:38;95955.81;;;-1.39;65.02
70684;BME280;58263;48.146;11.440;2023-04-05T03:43:04;95954.03;;;-1.39;65.02
70684;BME280;58263;48.146;11.440;2023-04-05T03:45:29;95959.28;;;-1.39;64.92
70684;BME280;58263;48.146;11.440;2023-04-05T03:47:56;95958.53;;;-1.49;64.99
70684;BME280;58263;48.146;11.440;2023-04-05T03:50:22;95962.72;;;-1.56;65.15
70684;BME280;58263;48.146;11.440;2023-04-05T03:52:47;95954.34;;;-1.42;64.78
70684;BME280;58263;48.146;11.440;2023-04-05T03:55:13;95958.25;;;-1.46;64.94
70684;BME280;58263;48.146;11.440;2023-04-05T03:57:41;95957.16;;;-1.53;65.08
70684;BME280;58263;48.146;11.440;2023-04-05T04:00:07;95955.47;;;-1.44;64.73
70684;BME280;58263;48.146;11.440;2023-04-05T04:02:45;95952.38;;;-1.40;64.60
70684;BME280;58263;48.146;11.440;2023-04-05T04:05:11;95948.47;;;-1.54;64.77
70684;BME280;58263;48.146;11.440;2023-04-05T04:07:37;95955.66;;;-1.56;65.10
70684;BME280;58263;48.146;11.440;2023-04-05T04:10:06;95950.94;;;-1.52;65.14
70684;BME280;58263;48.146;11.440;2023-04-05T04:12:31;95947.03;;;-1.48;64.84
70684;BME280;58263;48.146;11.440;2023-04-05T04:14:57;95949.88;;;-1.41;64.74
70684;BME280;58263;48.146;11.440;2023-04-05T04:17:30;95957.94;;;-1.43;64.81
70684;BME280;58263;48.146;11.440;2023-04-05T04:19:57;95953.63;;;-1.44;64.64
70684;BME280;58263;48.146;11.440;2023-04-05T04:22:23;95951.97;;;-1.45;64.47
70684;BME280;58263;48.146;11.440;2023-04-05T04:24:53;95946.72;;;-1.45;64.46
70684;BME280;58263;48.146;11.440;2023-04-05T04:27:19;95954.84;;;-1.56;65.07
70684;BME280;58263;48.146;11.440;2023-04-05T04:29:48;95957.78;;;-1.59;64.97
70684;BME280;58263;48.146;11.440;2023-04-05T04:32:14;95953.25;;;-1.49;64.69
70684;BME280;58263;48.146;11.440;2023-04-05T04:34:40;95956.44;;;-1.45;64.32
70684;BME280;58263;48.146;11.440;2023-04-05T04:37:18;95946.38;;;-1.50;64.77
70684;BME280;58263;48.146;11.440;2023-04-05T04:39:47;95959.72;;;-1.61;64.91
70684;BME280;58263;48.146;11.440;2023-04-05T04:42:14;95957.69;;;-1.67;65.07
70684;BME280;58263;48.146;11.440;2023-04-05T04:44:44;95955.66;;;-1.74;65.31
70684;BME280;58263;48.146;11.440;2023-04-05T04:47:10;95956.34;;;-1.72;65.29
70684;BME280;58263;48.146;11.440;2023-04-05T04:49:38;95955.97;;;-1.77;65.49
70684;BME280;58263;48.146;11.440;2023-04-05T04:52:05;95956.38;;;-1.81;65.85
70684;BME280;58263;48.146;11.440;2023-04-05T04:54:31;95955.88;;;-1.85;65.82
70684;BME280;58263;48.146;11.440;2023-04-05T04:56:58;95947.97;;;-1.85;66.01
70684;BME280;58263;48.146;11.440;2023-04-05T04:59:24;95955.00;;;-1.76;65.70
70684;BME280;58263;48.146;11.440;2023-04-05T05:01:49;95953.81;;;-1.91;66.21
70684;BME280;58263;48.146;11.440;2023-04-05T05:04:15;95955.88;;;-1.85;66.38
70684;BME280;58263;48.146;11.440;2023-04-05T05:06:40;95954.50;;;-1.89;66.47
70684;BME280;58263;48.146;11.440;2023-04-05T05:09:05;95958.72;;;-1.96;66.65
70684;BME280;58263;48.146;11.440;2023-04-05T05:11:31;95963.28;;;-1.98;66.76
70684;BME280;58263;48.146;11.440;2023-04-05T05:13:56;95955.94;;;-1.95;66.73
70684;BME280;58263;48.146;11.440;2023-04-05T05:16:21;95958.03;;;-1.98;66.94
70684;BME280;58263;48.146;11.440;2023-04-05T05:18:49;95964.16;;;-2.08;67.43
70684;BME280;58263;48.146;11.440;2023-04-05T05:21:15;95959.91;;;-1.91;67.23
70684;BME280;58263;48.146;11.440;2023-04-05T05:23:40;95955.09;;;-1.77;67.05
70684;BME280;58263;48.146;11.440;2023-04-05T05:26:05;95959.56;;;-1.78;66.94
70684;BME280;58263;48.146;11.440;2023-04-05T05:28:31;95957.31;;;-1.73;67.01
70684;BME280;58263;48.146;11.440;2023-04-05T05:30:56;95961.75;;;-1.73;66.96
70684;BME280;58263;48.146;11.440;2023-04-05T05:33:21;95958.97;;;-1.72;66.80
70684;BME280;58263;48.146;11.440;2023-04-05T05:35:48;95950.25;;;-1.72;66.63
70684;BME280;58263;48.146;11.440;2023-04-05T05:38:13;95961.97;;;-1.66;66.65
70684;BME280;58263;48.146;11.440;2023-04-05T05:40:39;95958.38;;;-1.65;66.75
70684;BME280;58263;48.146;11.440;2023-04-05T05:43:04;95963.31;;;-1.62;66.60
70684;BME280;58263;48.146;11.440;2023-04-05T05:45:29;95968.06;;;-1.48;66.09
70684;BME280;58263;48.146;11.440;2023-04-05T05:47:55;95966.50;;;-1.41;65.91
70684;BME280;58263;48.146;11.440;2023-04-05T05:50:20;95970.94;;;-1.41;65.91
70684;BME280;58263;48.146;11.440;2023-04-05T05:52:46;95971.16;;;-1.34;65.70
70684;BME280;58263;48.146;11.440;2023-04-05T05:55:11;95974.91;;;-1.19;65.39
70684;BME280;58263;48.146;11.440;2023-04-05T05:57:36;95974.91;;;-1.19;65.54
70684;BME280;58263;48.146;11.440;2023-04-05T06:00:03;95976.94;;;-1.13;65.26
70684;BME280;58263;48.146;11.440;2023-04-05T06:02:33;95976.47;;;-1.08;65.16
70684;BME280;58263;48.146;11.440;2023-04-05T06:04:58;95978.41;;;-0.92;65.12
70684;BME280;58263;48.146;11.440;2023-04-05T06:07:24;95974.88;;;-0.83;65.05
70684;BME280;58263;48.146;11.440;2023-04-05T06:09:49;95969.72;;;-0.66;64.55
70684;BME280;58263;48.146;11.440;2023-04-05T06:12:15;95976.38;;;-0.54;64.26
70684;BME280;58263;48.146;11.440;2023-04-05T06:14:40;95973.94;;;-0.47;64.31
70684;BME280;58263;48.146;11.440;2023-04-05T06:17:05;95979.91;;;-0.37;64.49
70684;BME280;58263;48.146;11.440;2023-04-05T06:19:30;95984.00;;;-0.08;63.47
70684;BME280;58263;48.146;11.440;2023-04-05T06:21:56;95981.31;;;0.10;62.53
70684;BME280;58263;48.146;11.440;2023-04-05T06:24:21;95982.38;;;0.42;61.38
70684;BME280;58263;48.146;11.440;2023-04-05T06:26:46;95980.78;;;0.65;60.16
70684;BME280;58263;48.146;11.440;2023-04-05T06:29:12;95972.22;;;0.88;59.47
70684;BME280;58263;48.146;11.440;2023-04-05T06:31:38;95975.66;;;0.72;58.90
70684;BME280;58263;48.146;11.440;2023-04-05T06:34:05;95971.41;;;1.21;58.42
70684;BME280;58263;48.146;11.440;2023-04-05T06:36:31;95981.44;;;1.42;57.51
70684;BME280;58263;48.146;11.440;2023-04-05T06:38:57;95972.19;;;1.62;56.17
70684;BME280;58263;48.146;11.440;2023-04-05T06:41:23;95975.75;;;1.86;55.49
70684;BME280;58263;48.146;11.440;2023-04-05T06:43:48;95969.06;;;2.07;55.62
70684;BME280;58263;48.146;11.440;2023-04-05T06:46:14;95968.63;;;2.26;55.14
70684;BME280;58263;48.146;11.440;2023-04-05T06:48:39;95968.53;;;2.51;54.49
70684;BME280;58263;48.146;11.440;2023-04-05T06:51:05;95959.47;;;2.68;53.35
70684;BME280;58263;48.146;11.440;2023-04-05T06:53:30;95960.06;;;2.79;53.85
70684;BME280;58263;48.146;11.440;2023-04-05T06:55:58;95964.13;;;2.90;52.99
70684;BME280;58263;48.146;11.440;2023-04-05T06:58:24;95956.09;;;3.21;52.52
70684;BME280;58263;48.146;11.440;2023-04-05T07:00:51;95958.16;;;3.49;51.32
70684;BME280;58263;48.146;11.440;2023-04-05T07:03:16;95957.91;;;3.73;50.03
70684;BME280;58263;48.146;11.440;2023-04-05T07:05:52;95946.63;;;3.42;49.23
70684;BME280;58263;48.146;11.440;2023-04-05T07:08:19;95964.06;;;3.89;49.42
70684;BME280;58263;48.146;11.440;2023-04-05T07:10:45;95953.78;;;4.16;48.19
70684;BME280;58263;48.146;11.440;2023-04-05T07:13:11;95960.81;;;4.38;47.53
70684;BME280;58263;48.146;11.440;2023-04-05T07:15:36;95949.53;;;4.51;46.32
70684;BME280;58263;48.146;11.440;2023-04-05T07:18:02;95956.50;;;4.74;46.63
70684;BME280;58263;48.146;11.440;2023-04-05T07:20:27;95949.69;;;4.86;45.60
70684;BME280;58263;48.146;11.440;2023-04-05T07:22:52;95942.84;;;4.99;45.56
70684;BME280;58263;48.146;11.440;2023-04-05T07:25:18;95948.72;;;5.16;44.71
70684;BME280;58263;48.146;11.440;2023-04-05T07:27:43;95951.78;;;5.41;44.44
70684;BME280;58263;48.146;11.440;2023-04-05T07:30:09;95954.41;;;5.63;43.75
70684;BME280;58263;48.146;11.440;2023-04-05T07:32:37;95955.16;;;5.85;43.91
70684;BME280;58263;48.146;11.440;2023-04-05T07:35:02;95953.06;;;6.02;42.65
70684;BME280;58263;48.146;11.440;2023-04-05T07:37:28;95952.28;;;6.15;42.16
70684;BME280;58263;48.146;11.440;2023-04-05T07:39:54;95958.53;;;6.35;41.70
70684;BME280;58263;48.146;11.440;2023-04-05T07:42:20;95956.53;;;6.44;40.37
70684;BME280;58263;48.146;11.440;2023-04-05T07:44:46;95957.38;;;6.51;40.18
70684;BME280;58263;48.146;11.440;2023-04-05T07:47:11;95958.63;;;6.62;40.84
70684;BME280;58263;48.146;11.440;2023-04-05T07:49:37;95962.38;;;6.81;40.57
70684;BME280;58263;48.146;11.440;2023-04-05T07:52:03;95958.13;;;7.00;39.18
70684;BME280;58263;48.146;11.440;2023-04-05T07:54:30;95964.28;;;7.07;39.25
70684;BME280;58263;48.146;11.440;2023-04-05T07:56:56;95967.19;;;7.39;38.42
70684;BME280;58263;48.146;11.440;2023-04-05T07:59:22;95971.91;;;7.51;38.03
70684;BME280;58263;48.146;11.440;2023-04-05T08:01:47;95967.81;;;7.75;37.48
70684;BME280;58263;48.146;11.440;2023-04-05T08:04:13;95962.25;;;7.76;36.48
70684;BME280;58263;48.146;11.440;2023-04-05T08:06:38;95966.56;;;7.84;36.80
70684;BME280;58263;48.146;11.440;2023-04-05T08:09:03;95963.66;;;7.99;36.72
70684;BME280;58263;48.146;11.440;2023-04-05T08:11:30;95961.13;;;8.18;36.93
70684;BME280;58263;48.146;11.440;2023-04-05T08:13:56;95966.88;;;8.35;36.72
70684;BME280;58263;48.146;11.440;2023-04-05T08:16:21;95971.75;;;8.58;37.16
70684;BME280;58263;48.146;11.440;2023-04-05T08:18:47;95975.19;;;8.65;35.94
70684;BME280;58263;48.146;11.440;2023-04-05T08:21:12;95964.13;;;8.55;35.64
70684;BME280;58263;48.146;11.440;2023-04-05T08:23:37;95960.66;;;8.48;35.38
70684;BME280;58263;48.146;11.440;2023-04-05T08:26:03;95962.53;;;8.86;35.71
70684;BME280;58263;48.146;11.440;2023-04-05T08:28:28;95966.75;;;9.07;34.21
70684;BME280;58263;48.146;11.440;2023-04-05T08:30:54;95967.31;;;9.16;33.27
70684;BME280;58263;48.146;11.440;2023-04-05T08:33:20;95959.38;;;9.34;33.83
70684;BME280;58263;48.146;11.440;2023-04-05T08:35:46;95963.00;;;9.46;33.52
70684;BME280;58263;48.146;11.440;2023-04-05T08:38:11;95965.19;;;9.56;32.92
70684;BME280;58263;48.146;11.440;2023-04-05T08:40:45;95957.78;;;10.02;33.85
70684;BME280;58263;48.146;11.440;2023-04-05T08:43:22;95961.06;;;10.23;33.08
70684;BME280;58263;48.146;11.440;2023-04-05T08:45:51;95959.81;;;10.25;32.32
70684;BME280;58263;48.146;11.440;2023-04-05T08:48:17;95951.75;;;10.44;32.19
70684;BME280;58263;48.146;11.440;2023-04-05T08:50:52;95950.44;;;10.53;32.29
70684;BME280;58263;48.146;11.440;2023-04-05T08:53:19;95955.06;;;10.46;31.39
70684;BME280;58263;48.146;11.440;2023-04-05T08:56:05;95954.06;;;10.59;31.99
70684;BME280;58263;48.146;11.440;2023-04-05T08:58:33;95956.56;;;10.91;31.75
70684;BME280;58263;48.146;11.440;2023-04-05T09:00:59;95954.94;;;10.90;30.60
70684;BME280;58263;48.146;11.440;2023-04-05T09:03:33;95960.72;;;10.38;29.58
70684;BME280;58263;48.146;11.440;2023-04-05T09:06:01;95949.00;;;10.51;30.51
70684;BME280;58263;48.146;11.440;2023-04-05T09:08:30;95948.47;;;10.79;30.28
70684;BME280;58263;48.146;11.440;2023-04-05T09:10:56;95955.91;;;10.77;30.25
70684;BME280;58263;48.146;11.440;2023-04-05T09:13:21;95955.41;;;10.31;30.05
70684;BME280;58263;48.146;11.440;2023-04-05T09:15:47;95958.44;;;11.32;29.78
70684;BME280;58263;48.146;11.440;2023-04-05T09:18:12;95950.25;;;12.05;26.77
70684;BME280;58263;48.146;11.440;2023-04-05T09:20:38;95952.97;;;12.58;26.68
70684;BME280;58263;48.146;11.440;2023-04-05T09:23:03;95956.75;;;11.86;27.38
70684;BME280;58263;48.146;11.440;2023-04-05T09:27:58;95954.34;;;11.18;27.87
70684;BME280;58263;48.146;11.440;2023-04-05T09:30:25;95948.22;;;11.89;27.33
70684;BME280;58263;48.146;11.440;2023-04-05T09:32:53;95949.06;;;12.13;27.10
70684;BME280;58263;48.146;11.440;2023-04-05T09:35:21;95951.22;;;12.51;27.49
70684;BME280;58263;48.146;11.440;2023-04-05T09:37:57;95946.19;;;12.67;26.42
70684;BME280;58263;48.146;11.440;2023-04-05T09:40:23;95950.34;;;12.34;25.84
70684;BME280;58263;48.146;11.440;2023-04-05T09:42:49;95950.91;;;11.89;26.56
70684;BME280;58263;48.146;11.440;2023-04-05T09:45:16;95951.59;;;12.43;27.59
70684;BME280;58263;48.146;11.440;2023-04-05T09:47:53;95950.69;;;12.78;26.28
70684;BME280;58263;48.146;11.440;2023-04-05T09:50:19;95947.34;;;12.71;26.28
70684;BME280;58263;48.146;11.440;2023-04-05T09:52:45;95940.78;;;13.25;26.44
70684;BME280;58263;48.146;11.440;2023-04-05T09:55:11;95943.78;;;13.57;25.66
70684;BME280;58263;48.146;11.440;2023-04-05T09:57:38;95936.03;;;13.44;25.57
70684;BME280;58263;48.146;11.440;2023-04-05T10:00:05;95942.09;;;12.93;26.30
70684;BME280;58263;48.146;11.440;2023-04-05T10:02:42;95935.97;;;13.56;25.52
70684;BME280;58263;48.146;11.440;2023-04-05T10:05:09;95949.59;;;13.49;24.55
70684;BME280;58263;48.146;11.440;2023-04-05T10:07:38;95932.13;;;13.85;23.88
70684;BME280;58263;48.146;11.440;2023-04-05T10:10:04;95933.81;;;14.09;24.49
70684;BME280;58263;48.146;11.440;2023-04-05T10:12:31;95936.50;;;13.92;24.11
70684;BME280;58263;48.146;11.440;2023-04-05T10:14:57;95932.59;;;14.39;23.75
70684;BME280;58263;48.146;11.440;2023-04-05T10:17:30;95934.72;;;14.59;23.44
70684;BME280;58263;48.146;11.440;2023-04-05T10:20:14;95938.44;;;14.97;25.67
70684;BME280;58263;48.146;11.440;2023-04-05T10:23:08;95930.72;;;13.83;23.35
70684;BME280;58263;48.146;11.440;2023-04-05T10:28:36;95922.13;;;14.86;23.38
70684;BME280;58263;48.146;11.440;2023-04-05T10:33:41;95912.50;;;15.83;22.03
70684;BME280;58263;48.146;11.440;2023-04-05T10:39:03;95915.41;;;16.72;19.46
70684;BME280;58263;48.146;11.440;2023-04-05T10:41:33;95910.09;;;18.42;18.42
70684;BME280;58263;48.146;11.440;2023-04-05T10:44:00;95919.94;;;20.12;17.55
70684;BME280;58263;48.146;11.440;2023-04-05T10:46:26;95927.09;;;21.24;16.44
70684;BME280;58263;48.146;11.440;2023-04-05T10:49:04;95901.97;;;21.65;15.90
70684;BME280;58263;48.146;11.440;2023-04-05T10:51:33;95887.72;;;22.01;15.88
70684;BME280;58263;48.146;11.440;2023-04-05T10:53:59;95891.63;;;22.98;15.85
70684;BME280;58263;48.146;11.440;2023-04-05T10:56:25;95888.19;;;24.10;14.60
70684;BME280;58263;48.146;11.440;2023-04-05T10:58:52;95894.94;;;24.36;14.13
70684;BME280;58263;48.146;11.440;2023-04-05T11:01:19;95882.63;;;24.64;13.86
70684;BME280;58263;48.146;11.440;2023-04-05T11:03:50;95890.34;;;25.90;13.45
70684;BME280;58263;48.146;11.440;2023-04-05T11:08:58;95890.63;;;24.52;13.34
70684;BME280;58263;48.146;11.440;2023-04-05T11:11:24;95893.59;;;25.92;13.16
70684;BME280;58263;48.146;11.440;2023-04-05T11:13:53;95888.25;;;23.74;14.79
70684;BME280;58263;48.146;11.440;2023-04-05T11:16:20;95897.03;;;24.07;13.71
70684;BME280;58263;48.146;11.440;2023-04-05T11:18:46;95896.97;;;23.17;14.78
70684;BME280;58263;48.146;11.440;2023-04-05T11:21:19;95880.00;;;20.02;15.95
70684;BME280;58263;48.146;11.440;2023-04-05T11:24:08;95888.91;;;19.44;17.41
70684;BME280;58263;48.146;11.440;2023-04-05T11:29:04;95885.56;;;21.84;15.99
70684;BME280;58263;48.146;11.440;2023-04-05T11:31:30;95882.78;;;20.94;16.04
70684;BME280;58263;48.146;11.440;2023-04-05T11:33:59;95873.41;;;24.60;13.72
70684;BME280;58263;48.146;11.440;2023-04-05T11:41:46;95868.38;;;28.12;11.71
70684;BME280;58263;48.146;11.440;2023-04-05T11:44:15;95859.94;;;28.54;10.87
70684;BME280;58263;48.146;11.440;2023-04-05T11:46:41;95874.28;;;29.75;10.29
70684;BME280;58263;48.146;11.440;2023-04-05T11:49:07;95865.66;;;29.48;10.13
70684;BME280;58263;48.146;11.440;2023-04-05T11:51:33;95862.56;;;29.37;10.71
70684;BME280;58263;48.146;11.440;2023-04-05T11:53:58;95859.47;;;28.40;10.80
70684;BME280;58263;48.146;11.440;2023-04-05T11:56:24;95860.91;;;26.17;12.04
70684;BME280;58263;48.146;11.440;2023-04-05T11:58:49;95858.41;;;25.51;12.53
70684;BME280;58263;48.146;11.440;2023-04-05T12:01:16;95869.84;;;25.09;12.83
70684;BME280;58263;48.146;11.440;2023-04-05T12:03:41;95861.63;;;23.66;13.29
70684;BME280;58263;48.146;11.440;2023-04-05T12:06:07;95861.75;;;21.71;14.92
70684;BME280;58263;48.146;11.440;2023-04-05T12:08:40;95865.56;;;20.99;14.89
70684;BME280;58263;48.146;11.440;2023-04-05T12:11:07;95861.09;;;22.07;14.41
70684;BME280;58263;48.146;11.440;2023-04-05T12:13:33;95859.41;;;24.62;13.35
70684;BME280;58263;48.146;11.440;2023-04-05T12:16:03;95854.00;;;25.93;11.70
70684;BME280;58263;48.146;11.440;2023-04-05T12:18:33;95854.84;;;25.68;12.81
70684;BME280;58263;48.146;11.440;2023-04-05T12:21:00;95853.81;;;25.90;11.48
70684;BME280;58263;48.146;11.440;2023-04-05T12:23:26;95849.28;;;27.10;10.86
70684;BME280;58263;48.146;11.440;2023-04-05T12:25:53;95845.31;;;27.83;10.89
70684;BME280;58263;48.146;11.440;2023-04-05T12:28:19;95837.88;;;28.66;9.63
70684;BME280;58263;48.146;11.440;2023-04-05T12:31:03;95839.69;;;28.99;10.51
70684;BME280;58263;48.146;11.440;2023-04-05T12:33:30;95838.47;;;29.38;10.22
70684;BME280;58263;48.146;11.440;2023-04-05T12:36:03;95836.22;;;29.03;10.17
70684;BME280;58263;48.146;11.440;2023-04-05T12:38:29;95839.56;;;29.21;9.93
70684;BME280;58263;48.146;11.440;2023-04-05T12:41:01;95835.88;;;29.57;10.25
70684;BME280;58263;48.146;11.440;2023-04-05T12:43:38;95836.66;;;29.29;10.25
70684;BME280;58263;48.146;11.440;2023-04-05T12:46:10;95831.88;;;29.55;10.08
70684;BME280;58263;48.146;11.440;2023-04-05T12:48:37;95832.38;;;29.73;9.53
70684;BME280;58263;48.146;11.440;2023-04-05T12:51:03;95834.78;;;29.46;10.34
70684;BME280;58263;48.146;11.440;2023-04-05T12:53:29;95827.28;;;29.75;10.16
70684;BME280;58263;48.146;11.440;2023-04-05T12:55:56;95821.38;;;30.05;10.26
70684;BME280;58263;48.146;11.440;2023-04-05T12:58:32;95831.41;;;30.25;9.37
70684;BME280;58263;48.146;11.440;2023-04-05T13:00:58;95828.47;;;28.67;10.56
70684;BME280;58263;48.146;11.440;2023-04-05T13:03:25;95822.91;;;28.55;11.08
70684;BME280;58263;48.146;11.440;2023-04-05T13:05:50;95825.78;;;29.49;10.53
70684;BME280;58263;48.146;11.440;2023-04-05T13:08:16;95817.22;;;26.54;11.84
70684;BME280;58263;48.146;11.440;2023-04-05T13:10:46;95814.50;;;28.14;11.46
70684;BME280;58263;48.146;11.440;2023-04-05T13:13:12;95807.66;;;25.22;12.40
70684;BME280;58263;48.146;11.440;2023-04-05T13:15:38;95813.78;;;24.75;12.90
70684;BME280;58263;48.146;11.440;2023-04-05T13:18:04;95809.53;;;22.98;14.38
70684;BME280;58263;48.146;11.440;2023-04-05T13:20:30;95815.75;;;21.45;15.10
70684;BME280;58263;48.146;11.440;2023-04-05T13:22:55;95806.94;;;20.77;15.34